CheckWX is a tool to help pilots better visualize weather data.  It is not intended as a substitute for an official pre-flight weather briefing.

22:39:28 UTC

KALN METAR
St Louis Regional Airport
Alton/St Louis, Illinois, USA
Current

54 mins ago

KALN 262145Z 12005KT 10SM SKC 11/M01 A3037
Observed
Mar-26 @ 21:45 UTC
Wind
  • 120° at 5 KTS
Visibility
10 SM
Flight Rules
VFR
Cloud Levels
  • Clear skies
Temperature
11°C / 52°F
Dewpoint
-1°C / 30°F
Humidity
44%
Altimeter
30.37" Hg
Pressure
1028.42 hPa
Previous

2 hours ago

KALN 262045Z 12005KT 10SM SKC 11/M01 A3039
Observed
Mar-26 @ 20:45 UTC
Wind
  • 120° at 5 KTS
Visibility
10 SM
Flight Rules
VFR
Cloud Levels
  • Clear skies
Temperature
11°C / 52°F
Dewpoint
-1°C / 30°F
Humidity
44%
Altimeter
30.39" Hg
Pressure
1029.11 hPa
Previous

3 hours ago

KALN 261948Z 12005KT 10SM FEW200 10/M01 A3040
Observed
Mar-26 @ 19:48 UTC
Wind
  • 120° at 5 KTS
Visibility
10 SM
Flight Rules
VFR
Cloud Levels
  • Few at 20,000' AGL
Temperature
10°C / 50°F
Dewpoint
-1°C / 30°F
Humidity
47%
Altimeter
30.4" Hg
Pressure
1029.41 hPa